createdAt,value
2022-10-02T00:02:11.089Z,2.22
2022-10-02T00:04:44.311Z,1.95
2022-10-02T00:07:12.166Z,4.75
2022-10-02T00:09:48.916Z,2.45
2022-10-02T00:12:18.478Z,4.85
2022-10-02T00:14:47.569Z,3.40
2022-10-02T00:17:29.413Z,4.47
2022-10-02T00:19:56.593Z,2.13
2022-10-02T00:22:45.787Z,4.07
2022-10-02T00:25:27.542Z,2.90
2022-10-02T00:28:03.114Z,5.55
2022-10-02T00:30:36.490Z,4.78
2022-10-02T00:33:30.024Z,5.25
2022-10-02T00:36:24.442Z,4.70
2022-10-02T00:39:41.467Z,7.00
2022-10-02T00:45:12.335Z,3.70
2022-10-02T00:47:54.252Z,3.53
2022-10-02T00:50:28.199Z,4.30
2022-10-02T00:53:21.321Z,2.08
2022-10-02T00:56:10.184Z,2.45
2022-10-02T00:58:55.242Z,5.53
2022-10-02T01:01:43.306Z,3.80
2022-10-02T01:04:15.534Z,3.47
2022-10-02T01:06:42.257Z,3.85
2022-10-02T01:09:08.662Z,4.53
2022-10-02T01:11:35.383Z,2.50
2022-10-02T01:14:02.279Z,1.92
2022-10-02T01:16:28.814Z,4.50
2022-10-02T01:18:55.368Z,3.78
2022-10-02T01:21:37.546Z,2.30
2022-10-02T01:24:18.700Z,5.78
2022-10-02T01:26:45.359Z,5.05
2022-10-02T01:29:11.834Z,5.25
2022-10-02T01:31:38.297Z,5.10
2022-10-02T01:34:05.160Z,5.40
2022-10-02T01:36:32.629Z,4.50
2022-10-02T01:39:00.448Z,4.72
2022-10-02T01:41:26.929Z,4.57
2022-10-02T01:43:58.280Z,4.57
2022-10-02T01:46:24.598Z,5.30
2022-10-02T01:49:13.059Z,5.25
2022-10-02T01:51:58.075Z,4.68
2022-10-02T01:54:51.062Z,5.72
2022-10-02T01:57:38.944Z,4.18
2022-10-02T02:00:17.377Z,4.47
2022-10-02T02:03:11.570Z,5.38
2022-10-02T02:05:59.228Z,5.38
2022-10-02T02:08:37.295Z,3.67
2022-10-02T02:11:16.364Z,6.30
2022-10-02T02:13:48.038Z,5.10
2022-10-02T02:16:17.319Z,3.35
2022-10-02T02:18:51.447Z,5.85
2022-10-02T02:21:38.838Z,5.28
2022-10-02T02:24:11.316Z,6.03
2022-10-02T02:26:39.174Z,6.85
2022-10-02T02:29:08.578Z,5.38
2022-10-02T02:31:47.905Z,5.82
2022-10-02T02:34:20.101Z,6.10
2022-10-02T02:36:51.383Z,5.60
2022-10-02T02:39:29.881Z,2.72
2022-10-02T02:42:02.958Z,3.08
2022-10-02T02:44:33.861Z,2.80
2022-10-02T02:47:11.189Z,5.50
2022-10-02T02:50:05.397Z,5.95
2022-10-02T02:52:41.450Z,6.45
2022-10-02T02:55:24.004Z,5.07
2022-10-02T02:58:08.974Z,4.97
2022-10-02T03:00:35.874Z,4.43
2022-10-02T03:03:02.361Z,5.70
2022-10-02T03:05:29.602Z,4.40
2022-10-02T03:08:01.529Z,4.45
2022-10-02T03:10:32.374Z,2.30
2022-10-02T03:13:36.572Z,4.40
2022-10-02T03:16:06.673Z,4.35
2022-10-02T03:18:52.843Z,5.50
2022-10-02T03:21:37.964Z,5.80
2022-10-02T03:24:43.924Z,5.18
2022-10-02T03:27:23.282Z,3.53
2022-10-02T03:29:56.861Z,2.55
2022-10-02T03:32:24.166Z,2.38
2022-10-02T03:34:50.674Z,6.55
2022-10-02T03:37:17.845Z,6.97
2022-10-02T03:39:45.464Z,6.00
2022-10-02T03:42:14.469Z,6.00
2022-10-02T03:44:41.063Z,5.40
2022-10-02T03:47:07.513Z,4.15
2022-10-02T03:49:34.718Z,5.38
2022-10-02T03:52:01.413Z,4.93
2022-10-02T03:54:33.841Z,4.47
2022-10-02T03:57:04.955Z,4.70
2022-10-02T03:59:34.108Z,7.50
2022-10-02T04:02:06.235Z,5.13
2022-10-02T04:04:42.460Z,4.90
2022-10-02T04:07:19.047Z,6.03
2022-10-02T04:10:09.782Z,4.72
2022-10-02T04:12:40.886Z,3.95
2022-10-02T04:15:21.359Z,5.90
2022-10-02T04:17:47.679Z,6.57
2022-10-02T04:20:31.583Z,4.22
2022-10-02T04:23:13.185Z,8.20
2022-10-02T04:25:45.102Z,5.45
2022-10-02T04:28:19.591Z,3.58
2022-10-02T04:30:45.994Z,5.37
2022-10-02T04:33:19.239Z,6.18
2022-10-02T04:36:14.796Z,5.55
2022-10-02T04:39:01.407Z,6.22
2022-10-02T04:41:46.222Z,5.72
2022-10-02T04:44:18.383Z,6.13
2022-10-02T04:46:57.000Z,5.80
2022-10-02T04:49:26.581Z,5.60
2022-10-02T04:52:20.905Z,3.55
2022-10-02T04:55:07.196Z,2.90
2022-10-02T04:58:02.726Z,3.53
2022-10-02T05:00:36.815Z,6.07
2022-10-02T05:03:25.331Z,2.83
2022-10-02T05:06:12.812Z,3.97
2022-10-02T05:08:42.438Z,5.30
2022-10-02T05:11:42.090Z,5.28
2022-10-02T05:14:20.600Z,3.83
2022-10-02T05:17:11.367Z,5.50
2022-10-02T05:20:02.241Z,5.40
2022-10-02T05:22:31.628Z,5.38
2022-10-02T05:25:26.015Z,5.07
2022-10-02T05:28:10.749Z,7.00
2022-10-02T05:31:12.020Z,4.60
2022-10-02T05:34:10.048Z,3.08
2022-10-02T05:36:59.677Z,1.95
2022-10-02T05:39:38.117Z,2.17
2022-10-02T05:42:28.166Z,3.28
2022-10-02T05:45:02.698Z,2.92
2022-10-02T05:47:31.924Z,4.55
2022-10-02T05:49:58.255Z,2.78
2022-10-02T05:52:42.529Z,4.32
2022-10-02T05:55:34.964Z,1.33
2022-10-02T05:58:13.022Z,3.08
2022-10-02T06:00:47.948Z,3.97
2022-10-02T06:03:35.818Z,1.08
2022-10-02T06:06:28.810Z,2.38
2022-10-02T06:09:19.545Z,2.45
2022-10-02T06:11:49.933Z,3.25
2022-10-02T06:14:27.555Z,3.55
2022-10-02T06:17:02.721Z,4.05
2022-10-02T06:19:42.421Z,3.90
2022-10-02T06:22:12.405Z,2.92
2022-10-02T06:25:25.483Z,3.13
2022-10-02T06:28:00.968Z,3.42
2022-10-02T06:30:32.663Z,4.50
2022-10-02T06:33:09.606Z,4.80
2022-10-02T06:36:04.588Z,3.08
2022-10-02T06:39:00.559Z,4.40
2022-10-02T06:41:51.546Z,4.78
2022-10-02T06:44:47.922Z,5.82
2022-10-02T06:47:34.901Z,2.70
2022-10-02T06:50:16.419Z,5.68
2022-10-02T06:53:05.610Z,4.88
2022-10-02T06:55:48.812Z,7.32
2022-10-02T06:58:33.307Z,5.07
2022-10-02T07:01:09.908Z,5.10
2022-10-02T07:03:47.514Z,5.53
2022-10-02T07:06:33.262Z,6.22
2022-10-02T07:09:33.077Z,5.32
2022-10-02T07:12:14.805Z,4.55
2022-10-02T07:15:15.247Z,6.32
2022-10-02T07:17:47.350Z,6.00
2022-10-02T07:20:25.821Z,5.18
2022-10-02T07:23:25.097Z,6.18
2022-10-02T07:26:23.399Z,4.20
2022-10-02T07:29:30.550Z,5.80
2022-10-02T07:32:15.651Z,6.93
2022-10-02T07:34:51.958Z,6.35
2022-10-02T07:37:24.518Z,4.75
2022-10-02T07:40:03.366Z,4.15
2022-10-02T07:42:32.812Z,5.28
2022-10-02T07:45:26.798Z,6.25
2022-10-02T07:47:58.929Z,5.45
2022-10-02T07:50:38.128Z,5.63
2022-10-02T07:53:38.959Z,6.07
2022-10-02T07:56:07.947Z,4.72
2022-10-02T07:58:40.525Z,4.90
2022-10-02T08:01:16.867Z,6.72
2022-10-02T08:03:56.866Z,5.85
2022-10-02T08:06:23.347Z,5.57
2022-10-02T08:08:55.321Z,8.00
2022-10-02T08:11:31.424Z,7.28
2022-10-02T08:14:08.203Z,3.63
2022-10-02T08:16:48.125Z,7.05
2022-10-02T08:19:25.372Z,8.40
2022-10-02T08:22:05.235Z,7.72
2022-10-02T08:24:40.428Z,6.13
2022-10-02T08:27:15.860Z,8.23
2022-10-02T08:29:48.287Z,6.97
2022-10-02T08:32:15.183Z,8.70
2022-10-02T08:34:44.070Z,3.28
2022-10-02T08:37:47.617Z,3.45
2022-10-02T08:40:51.541Z,7.65
2022-10-02T08:43:33.287Z,8.32
2022-10-02T08:46:27.607Z,3.60
2022-10-02T08:49:31.949Z,7.38
2022-10-02T08:52:25.826Z,7.60
2022-10-02T08:55:21.654Z,5.25
2022-10-02T08:58:04.287Z,7.10
2022-10-02T09:00:36.620Z,7.80
2022-10-02T09:03:28.321Z,7.00
2022-10-02T09:06:19.467Z,7.93
2022-10-02T09:09:07.727Z,5.75
2022-10-02T09:12:10.249Z,6.45
2022-10-02T09:14:37.316Z,5.70
2022-10-02T09:17:03.728Z,2.72
2022-10-02T09:19:48.812Z,6.50
2022-10-02T09:22:36.166Z,6.88
2022-10-02T09:25:28.289Z,3.30
2022-10-02T09:28:22.455Z,7.82
2022-10-02T09:30:48.912Z,7.93
2022-10-02T09:33:21.179Z,8.20
2022-10-02T09:36:02.018Z,7.85
2022-10-02T09:38:53.309Z,6.07
2022-10-02T09:41:49.508Z,7.82
2022-10-02T09:44:37.631Z,7.53
2022-10-02T09:47:36.955Z,7.47
2022-10-02T09:50:49.841Z,5.88
2022-10-02T09:53:41.227Z,7.18
2022-10-02T09:56:53.295Z,7.55
2022-10-02T09:59:48.683Z,8.43
2022-10-02T10:02:57.201Z,7.60
2022-10-02T10:06:00.887Z,7.78
2022-10-02T10:08:55.219Z,6.90
2022-10-02T10:11:38.193Z,4.20
2022-10-02T10:14:36.952Z,5.43
2022-10-02T10:17:08.987Z,7.38
2022-10-02T10:19:35.338Z,5.68
2022-10-02T10:22:21.682Z,5.57
2022-10-02T10:25:10.631Z,5.65
2022-10-02T10:28:28.841Z,5.55
2022-10-02T10:31:13.754Z,5.03
2022-10-02T10:33:55.345Z,5.00
2022-10-02T10:36:58.570Z,5.05
2022-10-02T10:39:49.535Z,4.78
2022-10-02T10:43:06.456Z,4.80
2022-10-02T10:46:06.280Z,4.82
2022-10-02T10:48:49.403Z,3.42
2022-10-02T10:51:19.188Z,4.43
2022-10-02T10:54:02.066Z,5.70
2022-10-02T10:56:44.503Z,4.13
2022-10-02T10:59:27.173Z,4.30
2022-10-02T11:01:56.583Z,3.80
2022-10-02T11:04:40.961Z,3.45
2022-10-02T11:07:34.671Z,3.78
2022-10-02T11:10:22.417Z,3.28
2022-10-02T11:13:01.172Z,3.63
2022-10-02T11:15:39.472Z,3.08
2022-10-02T11:18:22.020Z,2.75
2022-10-02T11:21:13.706Z,3.38
2022-10-02T11:24:05.740Z,3.50
2022-10-02T11:26:55.258Z,2.45
2022-10-02T11:29:51.087Z,5.43
2022-10-02T11:32:43.419Z,3.20
2022-10-02T11:35:19.661Z,2.83
2022-10-02T11:38:04.658Z,2.70
2022-10-02T11:40:54.359Z,2.88
2022-10-02T11:43:38.410Z,1.95
2022-10-02T11:46:33.538Z,3.10
2022-10-02T11:49:07.593Z,3.03
2022-10-02T11:51:46.876Z,2.60
2022-10-02T11:54:25.064Z,2.55
2022-10-02T11:57:16.556Z,2.90
2022-10-02T12:00:14.012Z,2.55
2022-10-02T12:02:53.043Z,2.35
2022-10-02T12:05:43.047Z,2.70
2022-10-02T12:08:24.130Z,2.70
2022-10-02T12:11:16.700Z,2.35
2022-10-02T12:14:01.645Z,2.47
2022-10-02T12:17:07.775Z,3.38
2022-10-02T12:20:14.943Z,2.97
2022-10-02T12:23:14.057Z,2.90
2022-10-02T12:26:08.048Z,2.70
2022-10-02T12:28:43.196Z,2.50
2022-10-02T12:33:56.584Z,2.47
2022-10-02T12:36:38.278Z,2.60
2022-10-02T12:39:22.171Z,3.33
2022-10-02T12:42:21.347Z,2.67
2022-10-02T12:45:18.454Z,2.25
2022-10-02T12:48:07.095Z,2.28
2022-10-02T12:50:45.489Z,2.50
2022-10-02T12:53:15.115Z,2.30
2022-10-02T12:56:04.679Z,2.50
2022-10-02T12:58:53.899Z,2.42
2022-10-02T13:01:44.673Z,2.85
2022-10-02T13:04:34.744Z,2.47
2022-10-02T13:07:13.433Z,3.08
2022-10-02T13:09:52.205Z,2.75
2022-10-02T13:12:27.629Z,2.40
2022-10-02T13:15:25.387Z,2.13
2022-10-02T13:18:25.393Z,2.50
2022-10-02T13:21:07.275Z,2.67
2022-10-02T13:23:58.250Z,2.33
2022-10-02T13:26:37.070Z,2.08
2022-10-02T13:29:15.623Z,3.08
2022-10-02T13:32:01.917Z,2.50
2022-10-02T13:34:28.915Z,2.15
2022-10-02T13:37:04.726Z,2.45
2022-10-02T13:39:46.875Z,1.90
2022-10-02T13:42:14.490Z,2.45
2022-10-02T13:44:52.631Z,2.10
2022-10-02T13:47:31.659Z,1.30
2022-10-02T13:49:58.102Z,2.15
2022-10-02T13:52:47.553Z,2.40
2022-10-02T13:55:31.476Z,1.50
2022-10-02T13:58:06.735Z,2.63
2022-10-02T14:00:38.943Z,2.15
2022-10-02T14:03:43.190Z,1.73
2022-10-02T14:06:17.130Z,1.63
2022-10-02T14:08:52.568Z,2.20
2022-10-02T14:11:46.199Z,2.20
2022-10-02T14:14:35.820Z,1.98
2022-10-02T14:17:19.233Z,2.33
2022-10-02T14:19:52.728Z,2.20
2022-10-02T14:22:27.863Z,1.45
2022-10-02T14:25:10.399Z,2.20
2022-10-02T14:27:58.822Z,1.83
2022-10-02T14:30:46.832Z,2.33
2022-10-02T14:33:22.855Z,1.40
2022-10-02T14:35:49.198Z,1.75
2022-10-02T14:38:30.920Z,2.80
2022-10-02T14:41:02.102Z,1.98
2022-10-02T14:43:47.194Z,1.85
2022-10-02T14:46:21.779Z,2.22
2022-10-02T14:49:10.876Z,1.90
2022-10-02T14:52:14.358Z,2.05
2022-10-02T14:55:08.715Z,2.45
2022-10-02T14:58:06.179Z,2.60
2022-10-02T15:01:00.865Z,1.98
2022-10-02T15:03:30.365Z,1.98
2022-10-02T15:06:25.733Z,2.45
2022-10-02T15:09:00.890Z,2.40
2022-10-02T15:17:06.566Z,2.25
2022-10-02T15:19:54.723Z,2.20
2022-10-02T16:18:56.518Z,2.42
2022-10-02T16:21:37.393Z,2.30
2022-10-02T16:24:15.777Z,3.10
2022-10-02T16:27:08.349Z,3.13
2022-10-02T16:30:01.424Z,2.90
2022-10-02T16:33:06.422Z,2.53
2022-10-02T16:35:51.334Z,2.95
2022-10-02T16:38:37.878Z,2.33
2022-10-02T16:41:31.079Z,4.43
2022-10-02T16:44:22.429Z,3.50
2022-10-02T16:47:15.061Z,3.15
2022-10-02T16:49:53.983Z,3.08
2022-10-02T16:52:43.356Z,3.15
2022-10-02T16:55:27.750Z,4.78
2022-10-02T16:57:58.346Z,2.95
2022-10-02T17:00:31.246Z,4.10
2022-10-02T17:02:57.660Z,5.22
2022-10-02T17:05:46.204Z,3.55
2022-10-02T17:08:21.713Z,3.22
2022-10-02T17:11:13.473Z,3.80
2022-10-02T17:13:55.020Z,5.03
2022-10-02T17:16:55.418Z,3.20
2022-10-02T17:19:45.764Z,4.05
2022-10-02T17:22:35.598Z,4.95
2022-10-02T17:25:11.489Z,4.15
2022-10-02T17:27:53.316Z,5.68
2022-10-02T17:30:24.292Z,4.97
2022-10-02T17:33:02.282Z,4.82
2022-10-02T17:35:58.200Z,4.22
2022-10-02T17:38:31.156Z,5.53
2022-10-02T17:41:18.445Z,4.78
2022-10-02T17:44:11.052Z,4.07
2022-10-02T17:46:54.792Z,4.35
2022-10-02T17:49:48.738Z,3.35
2022-10-02T17:53:08.636Z,4.68
2022-10-02T17:56:18.618Z,3.80
2022-10-02T17:58:52.088Z,4.55
2022-10-02T18:01:29.339Z,7.38
2022-10-02T18:04:15.388Z,5.88
2022-10-02T18:06:56.951Z,5.40
2022-10-02T18:09:26.281Z,7.22
2022-10-02T18:12:28.351Z,5.43
2022-10-02T18:15:32.647Z,5.60
2022-10-02T18:17:59.017Z,7.60
2022-10-02T18:20:36.307Z,8.20
2022-10-02T18:23:39.547Z,6.82
2022-10-02T18:26:27.583Z,8.05
2022-10-02T18:29:15.032Z,7.57
2022-10-02T18:32:03.373Z,9.02
2022-10-02T18:34:33.424Z,8.77
2022-10-02T18:37:33.879Z,8.65
2022-10-02T18:40:36.920Z,8.63
2022-10-02T18:43:30.981Z,11.98
2022-10-02T18:46:03.054Z,10.45
2022-10-02T18:49:00.778Z,8.98
2022-10-02T18:51:31.328Z,8.20
2022-10-02T18:54:22.369Z,7.25
2022-10-02T18:57:07.472Z,11.20
2022-10-02T18:59:46.027Z,8.35
2022-10-02T19:02:26.342Z,13.02
2022-10-02T19:05:19.650Z,7.68
2022-10-02T19:07:58.242Z,9.43
2022-10-02T19:10:40.308Z,9.60
2022-10-02T19:13:18.201Z,9.50
2022-10-02T19:15:46.689Z,12.50
2022-10-02T19:18:22.675Z,13.73
2022-10-02T19:21:09.108Z,14.32
2022-10-02T19:24:05.800Z,11.38
2022-10-02T19:26:35.463Z,13.60
2022-10-02T19:29:08.089Z,14.77
2022-10-02T19:31:39.306Z,13.45
2022-10-02T19:34:13.886Z,15.85
2022-10-02T19:36:50.159Z,13.57
2022-10-02T19:39:41.313Z,8.40
2022-10-02T19:42:15.345Z,8.88
2022-10-02T19:44:48.698Z,11.73
2022-10-02T19:47:27.156Z,15.07
2022-10-02T19:49:56.881Z,12.02
2022-10-02T19:52:35.933Z,9.25
2022-10-02T19:55:17.184Z,7.25
2022-10-02T19:57:47.859Z,10.57
2022-10-02T20:00:16.644Z,14.60
2022-10-02T20:02:50.623Z,9.75
2022-10-02T20:05:22.018Z,10.30
2022-10-02T20:07:51.823Z,13.13
2022-10-02T20:10:25.150Z,11.32
2022-10-02T20:13:02.388Z,7.25
2022-10-02T20:15:58.516Z,7.40
2022-10-02T20:20:55.883Z,8.07
2022-10-02T20:23:28.270Z,12.15
2022-10-02T20:25:58.523Z,9.52
2022-10-02T20:28:33.909Z,11.77
2022-10-02T20:31:14.791Z,11.40
2022-10-02T20:33:55.355Z,13.35
2022-10-02T20:36:38.412Z,8.73
2022-10-02T20:39:14.674Z,15.93
2022-10-02T20:41:56.863Z,14.48
2022-10-02T20:44:25.922Z,12.27
2022-10-02T20:47:34.120Z,10.00
2022-10-02T20:50:19.365Z,11.20
2022-10-02T20:53:21.670Z,15.48
2022-10-02T20:55:59.680Z,11.55
2022-10-02T20:59:08.556Z,7.65
2022-10-02T21:01:37.913Z,8.88
2022-10-02T21:04:16.539Z,9.15
2022-10-02T21:07:10.809Z,13.07
2022-10-02T21:09:40.236Z,8.45
2022-10-02T21:12:18.829Z,8.60
2022-10-02T21:15:12.960Z,10.02
2022-10-02T21:18:07.764Z,9.98
2022-10-02T21:20:56.046Z,8.27
2022-10-02T21:23:51.663Z,8.15
2022-10-02T21:26:45.107Z,11.27
2022-10-02T21:29:36.527Z,9.77
2022-10-02T21:32:16.986Z,9.27
2022-10-02T21:35:08.725Z,12.95
2022-10-02T21:38:06.864Z,8.77
2022-10-02T21:41:22.056Z,8.63
2022-10-02T21:44:16.339Z,12.35
2022-10-02T21:46:58.002Z,8.50
2022-10-02T21:49:55.456Z,11.05
2022-10-02T21:53:17.458Z,15.18
2022-10-02T21:55:59.852Z,13.23
2022-10-02T21:59:04.663Z,13.02
2022-10-02T22:01:42.700Z,11.98
2022-10-02T22:04:36.118Z,8.63
2022-10-02T22:07:21.987Z,8.57
2022-10-02T22:10:14.580Z,14.27
2022-10-02T22:12:46.619Z,11.63
2022-10-02T22:15:31.865Z,11.40
2022-10-02T22:18:22.752Z,31.50
2022-10-02T22:21:06.651Z,13.15
2022-10-02T22:24:22.891Z,13.57
2022-10-02T22:27:10.164Z,11.90
2022-10-02T22:29:47.384Z,10.82
2022-10-02T22:32:49.553Z,9.75
2022-10-02T22:35:42.217Z,9.55
2022-10-02T22:38:20.597Z,10.30
2022-10-02T22:40:55.039Z,10.82
2022-10-02T22:43:40.227Z,11.77
2022-10-02T22:46:25.633Z,12.13
2022-10-02T22:49:00.968Z,11.00
2022-10-02T22:54:31.765Z,12.98
2022-10-02T22:57:12.687Z,12.52
2022-10-02T23:00:02.657Z,8.73
2022-10-02T23:02:32.508Z,8.65
2022-10-02T23:05:16.888Z,8.27
2022-10-02T23:07:57.362Z,8.57
2022-10-02T23:10:42.848Z,8.77
2022-10-02T23:13:09.193Z,8.90
2022-10-02T23:15:56.622Z,8.15
2022-10-02T23:18:27.005Z,9.32
2022-10-02T23:21:24.780Z,10.32
2022-10-02T23:23:59.680Z,9.40
2022-10-02T23:26:41.262Z,10.48
2022-10-02T23:29:26.051Z,9.20
2022-10-02T23:32:31.535Z,21.47
2022-10-02T23:35:25.396Z,10.52
2022-10-02T23:37:55.679Z,11.45
2022-10-02T23:40:44.937Z,9.63
2022-10-02T23:43:19.551Z,50.08
2022-10-02T23:45:54.121Z,35.35
2022-10-02T23:48:20.966Z,12.00
2022-10-02T23:51:00.121Z,21.30
2022-10-02T23:53:27.352Z,23.67
2022-10-02T23:55:56.735Z,17.85
2022-10-02T23:58:48.117Z,17.13
